createdAt,value
2023-02-17T00:01:36.183Z,38.30
2023-02-17T00:04:04.507Z,39.40
2023-02-17T00:06:33.316Z,38.73
2023-02-17T00:09:02.000Z,39.43
2023-02-17T00:11:30.602Z,38.30
2023-02-17T00:14:00.349Z,39.30
2023-02-17T00:16:30.130Z,39.70
2023-02-17T00:19:01.083Z,38.60
2023-02-17T00:21:31.248Z,38.93
2023-02-17T00:24:00.227Z,40.63
2023-02-17T00:26:28.706Z,38.90
2023-02-17T00:28:56.876Z,39.83
2023-02-17T00:31:25.381Z,40.33
2023-02-17T00:33:57.628Z,40.20
2023-02-17T00:36:29.878Z,38.57
2023-02-17T00:38:59.695Z,37.57
2023-02-17T00:41:29.109Z,39.70
2023-02-17T00:43:59.301Z,37.90
2023-02-17T00:46:29.233Z,39.63
2023-02-17T00:48:59.154Z,37.00
2023-02-17T00:51:27.612Z,36.60
2023-02-17T00:53:55.862Z,38.80
2023-02-17T00:56:24.084Z,37.10
2023-02-17T00:58:52.380Z,36.73
2023-02-17T01:01:20.770Z,33.57
2023-02-17T01:03:49.045Z,37.47
2023-02-17T01:06:24.534Z,35.90
2023-02-17T01:08:52.971Z,36.40
2023-02-17T01:11:23.321Z,35.40
2023-02-17T01:13:52.319Z,37.27
2023-02-17T01:16:23.388Z,36.30
2023-02-17T01:18:51.756Z,34.40
2023-02-17T01:21:24.467Z,34.57
2023-02-17T01:23:54.024Z,35.73
2023-02-17T01:26:24.494Z,35.77
2023-02-17T01:28:53.945Z,36.33
2023-02-17T01:31:23.848Z,36.43
2023-02-17T01:33:52.149Z,35.97
2023-02-17T01:36:22.130Z,37.67
2023-02-17T01:38:50.881Z,36.37
2023-02-17T01:41:22.001Z,34.73
2023-02-17T01:44:13.042Z,34.87
2023-02-17T01:46:42.637Z,34.57
2023-02-17T01:49:30.448Z,34.57
2023-02-17T01:52:08.235Z,35.93
2023-02-17T01:54:42.503Z,35.17
2023-02-17T01:57:12.769Z,36.40
2023-02-17T01:59:43.313Z,36.73
2023-02-17T02:02:12.504Z,35.93
2023-02-17T02:04:46.527Z,35.47
2023-02-17T02:07:21.693Z,35.47
2023-02-17T02:09:56.132Z,35.93
2023-02-17T02:12:26.734Z,35.67
2023-02-17T02:14:58.755Z,37.03
2023-02-17T02:17:38.573Z,36.17
2023-02-17T02:20:42.757Z,35.27
2023-02-17T02:23:39.375Z,34.37
2023-02-17T02:26:44.336Z,35.77
2023-02-17T02:29:29.558Z,35.90
2023-02-17T02:32:10.143Z,37.37
2023-02-17T02:34:46.577Z,38.80
2023-02-17T02:37:18.929Z,38.07
2023-02-17T02:39:51.936Z,40.27
2023-02-17T02:42:24.012Z,37.57
2023-02-17T02:44:52.629Z,37.70
2023-02-17T02:47:45.244Z,36.10
2023-02-17T02:50:21.339Z,35.93
2023-02-17T02:53:00.100Z,35.73
2023-02-17T02:55:38.596Z,36.27
2023-02-17T02:58:12.538Z,37.10
2023-02-17T03:00:47.698Z,35.77
2023-02-17T03:03:21.335Z,37.77
2023-02-17T03:05:56.422Z,36.07
2023-02-17T03:08:30.221Z,37.30
2023-02-17T03:10:59.253Z,38.10
2023-02-17T03:13:27.739Z,36.40
2023-02-17T03:15:56.048Z,35.87
2023-02-17T03:18:24.305Z,35.63
2023-02-17T03:20:56.169Z,35.50
2023-02-17T03:23:26.228Z,36.40
2023-02-17T03:25:54.507Z,36.80
2023-02-17T03:28:22.805Z,36.37
2023-02-17T03:30:52.926Z,36.97
2023-02-17T03:33:21.169Z,36.13
2023-02-17T03:35:49.460Z,36.33
2023-02-17T03:38:19.045Z,36.43
2023-02-17T03:40:47.283Z,37.43
2023-02-17T03:43:17.943Z,37.57
2023-02-17T03:45:46.441Z,37.37
2023-02-17T03:48:14.657Z,37.40
2023-02-17T03:50:42.828Z,38.13
2023-02-17T03:53:12.384Z,39.10
2023-02-17T03:55:42.018Z,38.93
2023-02-17T03:58:10.235Z,40.10
2023-02-17T04:00:38.436Z,38.40
2023-02-17T04:03:06.753Z,37.60
2023-02-17T04:05:35.030Z,38.13
2023-02-17T04:08:03.332Z,37.23
2023-02-17T04:10:31.586Z,38.50
2023-02-17T04:13:01.257Z,37.17
2023-02-17T04:15:29.979Z,36.77
2023-02-17T04:17:58.180Z,38.07
2023-02-17T04:20:26.468Z,38.13
2023-02-17T04:22:54.630Z,37.50
2023-02-17T04:25:23.530Z,37.90
2023-02-17T04:27:51.876Z,37.37
2023-02-17T04:30:21.774Z,39.27
2023-02-17T04:32:50.066Z,43.53
2023-02-17T04:35:18.541Z,41.50
2023-02-17T04:37:46.746Z,40.00
2023-02-17T04:40:15.501Z,40.67
2023-02-17T04:42:43.719Z,39.83
2023-02-17T04:45:12.625Z,43.30
2023-02-17T04:47:42.381Z,42.00
2023-02-17T04:50:11.718Z,39.37
2023-02-17T04:52:40.063Z,39.90
2023-02-17T04:55:09.267Z,39.20
2023-02-17T04:57:37.689Z,39.37
2023-02-17T05:00:07.537Z,41.83
2023-02-17T05:02:35.967Z,43.37
2023-02-17T05:05:05.742Z,43.27
2023-02-17T05:07:34.060Z,46.17
2023-02-17T05:10:02.281Z,43.47
2023-02-17T05:12:30.478Z,44.27
2023-02-17T05:14:58.664Z,41.90
2023-02-17T05:17:26.987Z,43.77
2023-02-17T05:19:55.187Z,40.00
2023-02-17T05:22:24.809Z,38.20
2023-02-17T05:24:53.160Z,41.67
2023-02-17T05:27:21.910Z,39.67
2023-02-17T05:29:51.574Z,43.83
2023-02-17T05:32:19.821Z,42.80
2023-02-17T05:34:48.023Z,41.47
2023-02-17T05:37:16.315Z,40.80
2023-02-17T05:39:46.026Z,41.70
2023-02-17T05:42:14.205Z,42.63
2023-02-17T05:44:42.448Z,40.37
2023-02-17T05:47:11.036Z,40.00
2023-02-17T05:49:39.209Z,39.53
2023-02-17T05:52:07.439Z,41.30
2023-02-17T05:54:35.731Z,38.03
2023-02-17T05:57:05.784Z,41.57
2023-02-17T05:59:34.029Z,40.87
2023-02-17T06:02:02.221Z,40.07
2023-02-17T06:04:30.465Z,40.87
2023-02-17T06:06:58.648Z,39.27
2023-02-17T06:09:26.960Z,36.97
2023-02-17T06:11:55.124Z,38.23
2023-02-17T06:14:24.722Z,40.57
2023-02-17T06:16:53.796Z,40.47
2023-02-17T06:19:21.998Z,39.37
2023-02-17T06:21:50.225Z,40.77
2023-02-17T06:24:18.472Z,39.90
2023-02-17T06:26:46.643Z,37.88
2023-02-17T06:29:14.908Z,39.10
2023-02-17T06:31:44.581Z,40.17
2023-02-17T06:34:12.971Z,39.70
2023-02-17T06:36:41.178Z,41.30
2023-02-17T06:39:09.438Z,40.77
2023-02-17T06:41:37.698Z,38.88
2023-02-17T06:44:06.082Z,38.60
2023-02-17T06:46:34.329Z,37.97
2023-02-17T06:49:03.957Z,42.03
2023-02-17T06:51:32.277Z,42.90
2023-02-17T06:54:00.478Z,42.88
2023-02-17T06:56:28.731Z,43.60
2023-02-17T06:58:57.027Z,42.30
2023-02-17T07:01:26.962Z,43.13
2023-02-17T07:03:55.890Z,42.25
2023-02-17T07:06:26.846Z,42.85
2023-02-17T07:08:55.196Z,41.78
2023-02-17T07:11:23.405Z,43.83
2023-02-17T07:13:51.611Z,44.80
2023-02-17T07:16:19.838Z,43.03
2023-02-17T07:18:48.071Z,39.92
2023-02-17T07:21:16.481Z,40.10
2023-02-17T07:23:46.159Z,42.90
2023-02-17T07:26:14.452Z,41.65
2023-02-17T07:28:42.997Z,43.50
2023-02-17T07:31:13.391Z,48.47
2023-02-17T07:33:42.676Z,48.92
2023-02-17T07:36:12.682Z,46.15
2023-02-17T07:38:42.104Z,45.58
2023-02-17T07:41:15.005Z,43.53
2023-02-17T07:43:43.707Z,41.50
2023-02-17T07:46:13.010Z,40.67
2023-02-17T07:48:41.462Z,39.17
2023-02-17T07:51:11.420Z,37.92
2023-02-17T07:53:40.571Z,35.40
2023-02-17T07:56:12.100Z,35.47
2023-02-17T07:58:42.397Z,35.35
2023-02-17T08:01:12.246Z,35.63
2023-02-17T08:03:41.293Z,34.10
2023-02-17T08:06:11.908Z,34.75
2023-02-17T08:08:57.381Z,34.97
2023-02-17T08:11:46.061Z,34.53
2023-02-17T08:14:15.685Z,33.70
2023-02-17T08:16:44.105Z,35.25
2023-02-17T08:19:12.564Z,33.65
2023-02-17T08:21:41.007Z,33.35
2023-02-17T08:24:09.464Z,32.45
2023-02-17T08:26:39.101Z,30.60
2023-02-17T08:29:07.438Z,31.05
2023-02-17T08:31:37.683Z,30.75
2023-02-17T08:34:07.988Z,30.17
2023-02-17T08:36:37.607Z,30.23
2023-02-17T08:39:07.529Z,30.15
2023-02-17T08:41:39.373Z,28.38
2023-02-17T08:44:10.375Z,28.77
2023-02-17T08:46:38.993Z,27.77
2023-02-17T08:49:08.054Z,29.08
2023-02-17T08:51:37.020Z,28.63
2023-02-17T08:54:08.046Z,30.00
2023-02-17T08:56:38.574Z,28.48
2023-02-17T08:59:07.433Z,26.98
2023-02-17T09:01:36.164Z,28.52
2023-02-17T09:04:06.112Z,27.90
2023-02-17T09:06:36.303Z,28.65
2023-02-17T09:09:06.256Z,28.25
2023-02-17T09:11:34.650Z,27.98
2023-02-17T09:14:04.853Z,27.85
2023-02-17T09:16:33.217Z,27.83
2023-02-17T09:19:01.512Z,28.50
2023-02-17T09:21:29.784Z,26.65
2023-02-17T09:23:58.154Z,26.95
2023-02-17T09:26:26.499Z,27.20
2023-02-17T09:28:54.786Z,28.52
2023-02-17T09:31:26.142Z,26.85
2023-02-17T09:33:55.394Z,27.70
2023-02-17T09:36:26.099Z,26.60
2023-02-17T09:38:54.982Z,25.67
2023-02-17T09:41:25.601Z,26.08
2023-02-17T09:43:55.812Z,27.77
2023-02-17T09:46:30.287Z,27.35
2023-02-17T09:49:04.650Z,26.20
2023-02-17T09:51:38.881Z,26.33
2023-02-17T09:54:13.427Z,25.73
2023-02-17T09:56:46.189Z,25.98
2023-02-17T09:59:19.713Z,26.55
2023-02-17T10:01:51.666Z,27.30
2023-02-17T10:04:25.249Z,27.35
2023-02-17T10:06:57.402Z,28.88
2023-02-17T10:09:31.804Z,29.02
2023-02-17T10:12:03.895Z,29.15
2023-02-17T10:14:37.272Z,27.17
2023-02-17T10:17:11.454Z,28.55
2023-02-17T10:19:48.624Z,30.17
2023-02-17T10:22:19.868Z,32.03
2023-02-17T10:24:48.266Z,31.05
2023-02-17T10:27:37.490Z,33.22
2023-02-17T10:30:27.729Z,31.95
2023-02-17T10:33:02.186Z,30.83
2023-02-17T10:35:43.515Z,31.52
2023-02-17T10:38:17.638Z,32.47
2023-02-17T10:40:51.332Z,31.10
2023-02-17T10:43:25.635Z,31.25
2023-02-17T10:45:54.175Z,30.02
2023-02-17T10:48:26.158Z,30.73
2023-02-17T10:50:58.010Z,30.27
2023-02-17T10:53:31.248Z,31.63
2023-02-17T10:56:04.575Z,31.27
2023-02-17T10:58:36.470Z,32.00
2023-02-17T11:01:06.542Z,31.27
2023-02-17T11:03:38.445Z,31.02
2023-02-17T11:06:17.024Z,30.58
2023-02-17T11:08:50.114Z,30.75
2023-02-17T11:11:20.776Z,32.17
2023-02-17T11:14:10.737Z,30.23
2023-02-17T11:16:41.306Z,30.38
2023-02-17T11:19:23.658Z,30.95
2023-02-17T11:21:52.749Z,32.60
2023-02-17T11:24:21.198Z,30.27
2023-02-17T11:26:58.386Z,31.35
2023-02-17T11:29:26.630Z,30.88
2023-02-17T11:31:56.889Z,30.90
2023-02-17T11:34:29.111Z,30.00
2023-02-17T11:37:03.104Z,31.48
2023-02-17T11:39:31.500Z,31.30
2023-02-17T11:41:59.742Z,31.10
2023-02-17T11:44:29.480Z,30.15
2023-02-17T11:47:08.284Z,30.70
2023-02-17T11:50:02.125Z,30.75
2023-02-17T11:52:49.515Z,27.90
2023-02-17T11:55:23.704Z,29.40
2023-02-17T11:58:10.070Z,28.45
2023-02-17T12:00:47.647Z,29.80
2023-02-17T12:03:58.828Z,29.65
2023-02-17T12:06:38.062Z,29.38
2023-02-17T12:09:18.644Z,29.90
2023-02-17T12:11:52.698Z,27.48
2023-02-17T12:14:41.085Z,28.90
2023-02-17T12:17:18.913Z,30.02
2023-02-17T12:19:54.446Z,28.17
2023-02-17T12:22:31.899Z,28.50
2023-02-17T12:25:26.871Z,28.08
2023-02-17T12:28:06.920Z,28.58
2023-02-17T12:30:48.235Z,27.17
2023-02-17T12:33:36.009Z,25.83
2023-02-17T12:36:08.992Z,27.35
2023-02-17T12:38:42.930Z,25.48
2023-02-17T12:41:16.185Z,27.75
2023-02-17T12:43:49.428Z,27.50
2023-02-17T12:46:21.224Z,29.35
2023-02-17T12:48:53.328Z,28.83
2023-02-17T12:51:27.392Z,29.63
2023-02-17T12:54:00.671Z,27.17
2023-02-17T12:56:58.414Z,27.88
2023-02-17T12:59:33.040Z,27.55
2023-02-17T13:02:03.327Z,27.45
2023-02-17T13:04:33.684Z,26.98
2023-02-17T13:07:21.361Z,26.98
2023-02-17T13:09:52.507Z,27.27
2023-02-17T13:12:41.649Z,27.17
2023-02-17T13:15:38.441Z,26.98
2023-02-17T13:18:12.428Z,27.08
2023-02-17T13:20:59.039Z,26.27
2023-02-17T13:23:30.763Z,25.90
2023-02-17T13:26:30.044Z,25.55
2023-02-17T13:29:34.724Z,24.05
2023-02-17T13:32:05.533Z,24.85
2023-02-17T13:34:36.293Z,26.42
2023-02-17T13:37:18.414Z,23.58
2023-02-17T13:39:47.409Z,24.42
2023-02-17T13:42:45.291Z,23.52
2023-02-17T13:45:24.080Z,24.20
2023-02-17T13:47:53.838Z,28.15
2023-02-17T13:50:34.525Z,31.30
2023-02-17T13:53:04.063Z,28.13
2023-02-17T13:55:32.362Z,26.17
2023-02-17T13:58:02.053Z,24.67
2023-02-17T14:00:31.627Z,23.65
2023-02-17T14:03:07.434Z,23.70
2023-02-17T14:05:41.470Z,23.70
2023-02-17T14:08:18.438Z,21.83
2023-02-17T14:10:47.355Z,21.83
2023-02-17T14:13:17.244Z,21.08
2023-02-17T14:15:54.325Z,22.63
2023-02-17T14:18:35.423Z,24.02
2023-02-17T14:21:12.037Z,22.35
2023-02-17T14:23:49.149Z,24.50
2023-02-17T14:26:30.530Z,22.05
2023-02-17T14:29:02.182Z,22.55
2023-02-17T14:31:30.839Z,23.58
2023-02-17T14:34:01.561Z,22.88
2023-02-17T14:36:35.740Z,22.83
2023-02-17T14:39:06.304Z,24.63
2023-02-17T14:41:34.769Z,23.35
2023-02-17T14:44:06.108Z,24.55
2023-02-17T14:46:34.772Z,23.33
2023-02-17T14:49:03.153Z,24.63
2023-02-17T14:51:35.188Z,23.73
2023-02-17T14:54:04.582Z,24.48
2023-02-17T14:56:35.925Z,24.40
2023-02-17T14:59:05.697Z,25.20
2023-02-17T15:01:33.948Z,24.67
2023-02-17T15:04:02.930Z,24.90
2023-02-17T15:06:37.448Z,24.23
2023-02-17T15:09:06.200Z,26.20
2023-02-17T15:11:37.546Z,23.85
2023-02-17T15:14:08.171Z,22.92
2023-02-17T15:16:36.591Z,28.20
2023-02-17T15:19:04.831Z,24.15
2023-02-17T15:21:34.872Z,26.00
2023-02-17T15:24:04.438Z,25.10
2023-02-17T15:26:34.148Z,25.42
2023-02-17T15:29:02.319Z,25.25
2023-02-17T15:31:35.400Z,25.95
2023-02-17T15:34:03.746Z,28.13
2023-02-17T15:36:32.871Z,25.88
2023-02-17T15:39:01.214Z,25.10
2023-02-17T15:41:31.744Z,25.58
2023-02-17T15:44:00.145Z,28.90
2023-02-17T15:46:34.298Z,27.58
2023-02-17T15:49:02.587Z,30.17
2023-02-17T15:51:30.777Z,30.05
2023-02-17T15:53:59.408Z,28.45
2023-02-17T15:56:31.253Z,31.27
2023-02-17T15:59:01.153Z,35.33
2023-02-17T16:01:32.030Z,36.97
2023-02-17T16:04:01.900Z,37.78
2023-02-17T16:06:30.659Z,30.48
2023-02-17T16:08:59.822Z,31.02
2023-02-17T16:11:29.046Z,28.42
2023-02-17T16:13:57.714Z,27.13
2023-02-17T16:16:29.654Z,28.23
2023-02-17T16:18:57.997Z,26.48
2023-02-17T16:21:27.800Z,27.33
2023-02-17T16:23:59.839Z,28.85
2023-02-17T16:26:33.617Z,28.15
2023-02-17T16:29:03.729Z,27.63
2023-02-17T16:31:35.924Z,29.13
2023-02-17T16:34:04.201Z,29.88
2023-02-17T16:36:36.679Z,28.48
2023-02-17T16:39:12.101Z,29.52
2023-02-17T16:41:40.687Z,28.92
2023-02-17T16:44:09.648Z,29.83
2023-02-17T16:46:38.872Z,29.05
2023-02-17T16:49:19.760Z,27.88
2023-02-17T16:51:49.437Z,28.33
2023-02-17T16:54:19.055Z,28.33
2023-02-17T16:56:49.234Z,26.35
2023-02-17T16:59:20.200Z,27.48
2023-02-17T17:01:49.559Z,25.33
2023-02-17T17:04:18.175Z,26.48
2023-02-17T17:06:50.758Z,24.73
2023-02-17T17:09:21.386Z,24.40
2023-02-17T17:11:50.144Z,24.75
2023-02-17T17:14:20.637Z,24.05
2023-02-17T17:16:52.593Z,24.25
2023-02-17T17:19:21.418Z,24.33
2023-02-17T17:21:51.189Z,25.27
2023-02-17T17:24:19.647Z,24.35
2023-02-17T17:26:50.270Z,23.63
2023-02-17T17:29:21.098Z,25.52
2023-02-17T17:31:49.552Z,24.50
2023-02-17T17:34:17.830Z,25.52
2023-02-17T17:36:48.015Z,25.88
2023-02-17T17:39:19.747Z,28.02
2023-02-17T17:41:48.498Z,27.52
2023-02-17T17:44:17.008Z,24.88
2023-02-17T17:46:45.652Z,25.02
2023-02-17T17:49:17.985Z,24.95
2023-02-17T17:51:46.307Z,27.17
2023-02-17T17:54:14.584Z,27.77
2023-02-17T17:56:45.002Z,23.15
2023-02-17T17:59:14.648Z,28.13
2023-02-17T18:01:45.616Z,24.27
2023-02-17T18:04:14.582Z,22.88
2023-02-17T18:06:45.431Z,24.05
2023-02-17T18:09:30.885Z,21.98
2023-02-17T18:12:05.596Z,25.17
2023-02-17T18:14:34.284Z,23.25
2023-02-17T18:17:02.649Z,24.73
2023-02-17T18:19:31.857Z,25.20
2023-02-17T18:22:00.172Z,27.35
2023-02-17T18:24:28.768Z,20.38
2023-02-17T18:26:57.061Z,20.55
2023-02-17T18:29:27.766Z,19.77
2023-02-17T18:31:57.512Z,20.30
2023-02-17T18:34:26.042Z,20.15
2023-02-17T18:36:54.247Z,19.58
2023-02-17T18:39:22.494Z,21.40
2023-02-17T18:41:50.766Z,22.77
2023-02-17T18:44:19.363Z,19.88
2023-02-17T18:46:48.927Z,19.45
2023-02-17T18:49:17.259Z,25.67
2023-02-17T18:51:45.474Z,17.67
2023-02-17T18:54:14.179Z,19.95
2023-02-17T18:56:42.483Z,19.25
2023-02-17T18:59:10.794Z,19.67
2023-02-17T19:01:41.017Z,19.88
2023-02-17T19:04:12.026Z,21.25
2023-02-17T19:06:40.672Z,19.85
2023-02-17T19:09:09.009Z,20.52
2023-02-17T19:11:37.391Z,19.15
2023-02-17T19:14:08.598Z,20.25
2023-02-17T19:16:36.844Z,20.80
2023-02-17T19:19:05.561Z,21.65
2023-02-17T19:21:36.424Z,20.17
2023-02-17T19:24:05.108Z,19.48
2023-02-17T19:26:34.194Z,20.92
2023-02-17T19:29:02.453Z,21.45
2023-02-17T19:31:31.774Z,20.13
2023-02-17T19:34:00.112Z,21.10
2023-02-17T19:36:28.486Z,22.48
2023-02-17T19:38:59.035Z,20.95
2023-02-17T19:41:27.314Z,22.02
2023-02-17T19:43:55.553Z,27.17
2023-02-17T19:46:25.758Z,26.05
2023-02-17T19:48:54.090Z,24.50
2023-02-17T19:51:22.853Z,26.63
2023-02-17T19:53:51.582Z,22.38
2023-02-17T19:56:24.404Z,24.27
2023-02-17T19:58:53.532Z,25.85
2023-02-17T20:01:23.474Z,25.63
2023-02-17T20:03:54.000Z,24.13
2023-02-17T20:06:24.441Z,26.98
2023-02-17T20:08:55.058Z,25.23
2023-02-17T20:11:25.017Z,26.10
2023-02-17T20:13:53.491Z,27.67
2023-02-17T20:16:21.881Z,26.67
2023-02-17T20:18:51.410Z,27.63
2023-02-17T20:21:21.638Z,28.73
2023-02-17T20:23:50.614Z,29.35
2023-02-17T20:26:21.725Z,28.33
2023-02-17T20:28:52.056Z,28.88
2023-02-17T20:31:20.683Z,30.13
2023-02-17T20:33:49.397Z,28.77
2023-02-17T20:36:18.309Z,29.05
2023-02-17T20:38:46.902Z,29.25
2023-02-17T20:41:17.820Z,30.77
2023-02-17T20:43:46.651Z,29.40
2023-02-17T20:46:26.053Z,28.23
2023-02-17T20:48:55.345Z,29.02
2023-02-17T20:51:24.609Z,31.90
2023-02-17T20:53:53.240Z,30.70
2023-02-17T20:56:23.414Z,30.13
2023-02-17T20:58:52.659Z,28.92
2023-02-17T21:01:22.227Z,29.13
2023-02-17T21:03:50.712Z,30.55
2023-02-17T21:06:23.048Z,32.55
2023-02-17T21:08:53.323Z,27.90
2023-02-17T21:11:22.098Z,26.60
2023-02-17T21:13:50.815Z,27.70
2023-02-17T21:16:22.373Z,24.30
2023-02-17T21:18:50.710Z,24.88
2023-02-17T21:21:19.119Z,23.95
2023-02-17T21:23:47.968Z,23.63
2023-02-17T21:26:17.169Z,22.52
2023-02-17T21:28:46.968Z,22.50
2023-02-17T21:31:16.261Z,21.42
2023-02-17T21:33:46.238Z,22.75
2023-02-17T21:36:16.755Z,21.63
2023-02-17T21:38:45.676Z,22.95
2023-02-17T21:41:15.989Z,21.02
2023-02-17T21:44:02.586Z,21.65
2023-02-17T21:46:31.490Z,20.52
2023-02-17T21:49:02.572Z,19.92
2023-02-17T21:51:31.554Z,20.17
2023-02-17T21:54:00.322Z,19.33
2023-02-17T21:56:29.023Z,19.02
2023-02-17T21:58:57.605Z,18.00
2023-02-17T22:01:30.212Z,17.63
2023-02-17T22:03:58.780Z,18.27
2023-02-17T22:06:30.304Z,14.95
2023-02-17T22:08:59.946Z,16.77
2023-02-17T22:11:30.757Z,11.60
2023-02-17T22:14:00.383Z,12.20
2023-02-17T22:16:31.380Z,8.00
2023-02-17T22:38:06.336Z,3.17
2023-02-17T22:40:34.562Z,2.80
2023-02-17T22:43:02.800Z,2.55
2023-02-17T22:45:31.138Z,3.47
2023-02-17T22:47:59.367Z,2.30
2023-02-17T22:50:27.690Z,2.88
2023-02-17T22:52:55.925Z,2.50
2023-02-17T22:55:25.564Z,2.90
2023-02-17T22:57:53.792Z,2.35
2023-02-17T23:00:22.334Z,1.65
2023-02-17T23:02:50.573Z,1.60
2023-02-17T23:05:20.233Z,1.65
2023-02-17T23:07:48.474Z,1.48
2023-02-17T23:10:16.686Z,1.67
2023-02-17T23:12:46.362Z,1.65
2023-02-17T23:15:14.825Z,1.52
2023-02-17T23:17:57.952Z,2.20
2023-02-17T23:20:26.649Z,1.60
2023-02-17T23:22:54.843Z,1.52
2023-02-17T23:25:23.100Z,1.52
2023-02-17T23:27:52.702Z,1.60
2023-02-17T23:30:23.192Z,1.65
2023-02-17T23:32:51.616Z,1.40
2023-02-17T23:35:20.024Z,1.55
2023-02-17T23:37:50.179Z,1.38
2023-02-17T23:40:19.335Z,1.30
2023-02-17T23:42:47.640Z,1.63
2023-02-17T23:45:17.427Z,1.50
2023-02-17T23:47:45.646Z,1.77
2023-02-17T23:50:16.197Z,1.67
2023-02-17T23:52:45.293Z,1.98
2023-02-17T23:55:13.563Z,2.03
2023-02-17T23:57:41.770Z,1.80
